sensor_id;sensor_type;location;lat;lon;timestamp;P1;durP1;ratioP1;P2;durP2;ratioP2
12135;SDS011;6131;56.420;15.548;2022-12-18T00:01:46;8.00;;;4.03;;
12135;SDS011;6131;56.420;15.548;2022-12-18T00:04:23;9.80;;;4.60;;
12135;SDS011;6131;56.420;15.548;2022-12-18T00:06:49;9.67;;;4.47;;
12135;SDS011;6131;56.420;15.548;2022-12-18T00:09:15;7.83;;;4.53;;
12135;SDS011;6131;56.420;15.548;2022-12-18T00:11:41;7.63;;;4.50;;
12135;SDS011;6131;56.420;15.548;2022-12-18T00:14:08;8.63;;;4.37;;
12135;SDS011;6131;56.420;15.548;2022-12-18T00:16:34;8.30;;;4.57;;
12135;SDS011;6131;56.420;15.548;2022-12-18T00:19:02;10.20;;;4.60;;
12135;SDS011;6131;56.420;15.548;2022-12-18T00:21:28;9.00;;;3.97;;
12135;SDS011;6131;56.420;15.548;2022-12-18T00:23:55;12.30;;;5.00;;
12135;SDS011;6131;56.420;15.548;2022-12-18T00:26:32;11.07;;;5.23;;
12135;SDS011;6131;56.420;15.548;2022-12-18T00:28:59;7.63;;;4.60;;
12135;SDS011;6131;56.420;15.548;2022-12-18T00:31:26;8.50;;;5.07;;
12135;SDS011;6131;56.420;15.548;2022-12-18T00:33:55;8.27;;;4.23;;
12135;SDS011;6131;56.420;15.548;2022-12-18T00:36:23;7.97;;;4.70;;
12135;SDS011;6131;56.420;15.548;2022-12-18T00:38:49;10.07;;;5.20;;
12135;SDS011;6131;56.420;15.548;2022-12-18T00:41:16;10.60;;;5.00;;
12135;SDS011;6131;56.420;15.548;2022-12-18T00:44:02;9.90;;;5.03;;
12135;SDS011;6131;56.420;15.548;2022-12-18T00:46:29;12.20;;;5.77;;
12135;SDS011;6131;56.420;15.548;2022-12-18T00:48:55;7.37;;;4.53;;
12135;SDS011;6131;56.420;15.548;2022-12-18T00:51:21;11.83;;;5.17;;
12135;SDS011;6131;56.420;15.548;2022-12-18T00:53:47;11.70;;;5.53;;
12135;SDS011;6131;56.420;15.548;2022-12-18T00:56:13;11.17;;;4.97;;
12135;SDS011;6131;56.420;15.548;2022-12-18T00:58:39;11.73;;;6.13;;
12135;SDS011;6131;56.420;15.548;2022-12-18T01:01:05;10.93;;;4.73;;
12135;SDS011;6131;56.420;15.548;2022-12-18T01:03:32;13.63;;;5.67;;
12135;SDS011;6131;56.420;15.548;2022-12-18T01:05:58;9.57;;;5.17;;
12135;SDS011;6131;56.420;15.548;2022-12-18T01:08:24;9.60;;;4.60;;
12135;SDS011;6131;56.420;15.548;2022-12-18T01:10:50;9.27;;;5.03;;
12135;SDS011;6131;56.420;15.548;2022-12-18T01:13:16;9.70;;;5.70;;
12135;SDS011;6131;56.420;15.548;2022-12-18T01:15:51;11.40;;;5.20;;
12135;SDS011;6131;56.420;15.548;2022-12-18T01:18:17;9.80;;;4.80;;
12135;SDS011;6131;56.420;15.548;2022-12-18T01:20:43;9.00;;;4.80;;
12135;SDS011;6131;56.420;15.548;2022-12-18T01:23:09;10.83;;;5.10;;
12135;SDS011;6131;56.420;15.548;2022-12-18T01:25:35;8.40;;;5.23;;
12135;SDS011;6131;56.420;15.548;2022-12-18T01:28:02;9.73;;;5.90;;
12135;SDS011;6131;56.420;15.548;2022-12-18T01:30:28;8.70;;;4.23;;
12135;SDS011;6131;56.420;15.548;2022-12-18T01:32:54;9.77;;;4.73;;
12135;SDS011;6131;56.420;15.548;2022-12-18T01:35:20;10.43;;;4.87;;
12135;SDS011;6131;56.420;15.548;2022-12-18T01:37:46;9.10;;;4.67;;
12135;SDS011;6131;56.420;15.548;2022-12-18T01:40:12;8.33;;;5.13;;
12135;SDS011;6131;56.420;15.548;2022-12-18T01:42:38;8.77;;;4.43;;
12135;SDS011;6131;56.420;15.548;2022-12-18T01:45:06;8.77;;;5.67;;
12135;SDS011;6131;56.420;15.548;2022-12-18T01:50:03;10.23;;;5.00;;
12135;SDS011;6131;56.420;15.548;2022-12-18T01:52:30;9.43;;;4.70;;
12135;SDS011;6131;56.420;15.548;2022-12-18T01:54:57;12.90;;;5.13;;
12135;SDS011;6131;56.420;15.548;2022-12-18T01:57:23;10.83;;;4.60;;
12135;SDS011;6131;56.420;15.548;2022-12-18T01:59:51;12.63;;;5.10;;
12135;SDS011;6131;56.420;15.548;2022-12-18T02:02:18;8.87;;;5.10;;
12135;SDS011;6131;56.420;15.548;2022-12-18T02:04:44;11.47;;;4.87;;
12135;SDS011;6131;56.420;15.548;2022-12-18T02:10:02;12.10;;;4.60;;
12135;SDS011;6131;56.420;15.548;2022-12-18T02:12:28;10.30;;;4.53;;
12135;SDS011;6131;56.420;15.548;2022-12-18T02:15:09;7.23;;;4.57;;
12135;SDS011;6131;56.420;15.548;2022-12-18T02:20:25;11.53;;;5.43;;
12135;SDS011;6131;56.420;15.548;2022-12-18T02:25:39;8.63;;;4.83;;
12135;SDS011;6131;56.420;15.548;2022-12-18T02:28:07;9.47;;;4.87;;
12135;SDS011;6131;56.420;15.548;2022-12-18T02:30:34;8.70;;;4.90;;
12135;SDS011;6131;56.420;15.548;2022-12-18T02:33:01;10.23;;;5.43;;
12135;SDS011;6131;56.420;15.548;2022-12-18T02:35:29;8.73;;;4.97;;
12135;SDS011;6131;56.420;15.548;2022-12-18T02:37:56;11.20;;;5.40;;
12135;SDS011;6131;56.420;15.548;2022-12-18T02:40:23;10.37;;;5.40;;
12135;SDS011;6131;56.420;15.548;2022-12-18T02:42:50;11.23;;;5.37;;
12135;SDS011;6131;56.420;15.548;2022-12-18T02:45:16;13.60;;;5.43;;
12135;SDS011;6131;56.420;15.548;2022-12-18T02:47:43;9.60;;;5.50;;
12135;SDS011;6131;56.420;15.548;2022-12-18T02:53:01;13.03;;;5.63;;
12135;SDS011;6131;56.420;15.548;2022-12-18T02:58:20;13.40;;;6.23;;
12135;SDS011;6131;56.420;15.548;2022-12-18T03:03:24;12.63;;;6.63;;
12135;SDS011;6131;56.420;15.548;2022-12-18T03:06:05;11.33;;;7.07;;
12135;SDS011;6131;56.420;15.548;2022-12-18T03:08:33;12.57;;;6.53;;
12135;SDS011;6131;56.420;15.548;2022-12-18T03:11:02;16.17;;;7.50;;
12135;SDS011;6131;56.420;15.548;2022-12-18T03:13:33;15.93;;;7.23;;
12135;SDS011;6131;56.420;15.548;2022-12-18T03:16:00;11.20;;;6.10;;
12135;SDS011;6131;56.420;15.548;2022-12-18T03:21:04;16.10;;;6.80;;
12135;SDS011;6131;56.420;15.548;2022-12-18T03:23:33;17.47;;;7.77;;
12135;SDS011;6131;56.420;15.548;2022-12-18T03:26:01;16.47;;;7.40;;
12135;SDS011;6131;56.420;15.548;2022-12-18T03:28:29;15.83;;;7.43;;
12135;SDS011;6131;56.420;15.548;2022-12-18T03:30:57;17.57;;;7.43;;
12135;SDS011;6131;56.420;15.548;2022-12-18T03:33:28;15.20;;;7.33;;
12135;SDS011;6131;56.420;15.548;2022-12-18T03:35:55;17.37;;;8.17;;
12135;SDS011;6131;56.420;15.548;2022-12-18T03:38:21;16.87;;;8.03;;
12135;SDS011;6131;56.420;15.548;2022-12-18T03:43:19;18.53;;;8.80;;
12135;SDS011;6131;56.420;15.548;2022-12-18T03:45:51;17.70;;;7.63;;
12135;SDS011;6131;56.420;15.548;2022-12-18T03:53:58;14.87;;;7.23;;
12135;SDS011;6131;56.420;15.548;2022-12-18T03:56:28;15.23;;;7.60;;
12135;SDS011;6131;56.420;15.548;2022-12-18T03:58:55;17.13;;;7.40;;
12135;SDS011;6131;56.420;15.548;2022-12-18T04:01:23;12.07;;;7.67;;
12135;SDS011;6131;56.420;15.548;2022-12-18T04:03:51;14.43;;;7.20;;
12135;SDS011;6131;56.420;15.548;2022-12-18T04:06:18;13.53;;;7.67;;
12135;SDS011;6131;56.420;15.548;2022-12-18T04:08:44;13.33;;;6.50;;
12135;SDS011;6131;56.420;15.548;2022-12-18T04:11:11;14.17;;;6.87;;
12135;SDS011;6131;56.420;15.548;2022-12-18T04:13:37;12.30;;;6.77;;
12135;SDS011;6131;56.420;15.548;2022-12-18T04:16:03;11.27;;;6.17;;
12135;SDS011;6131;56.420;15.548;2022-12-18T04:18:30;12.70;;;6.30;;
12135;SDS011;6131;56.420;15.548;2022-12-18T04:20:56;18.80;;;6.93;;
12135;SDS011;6131;56.420;15.548;2022-12-18T04:23:22;12.93;;;6.77;;
12135;SDS011;6131;56.420;15.548;2022-12-18T04:25:48;11.90;;;6.00;;
12135;SDS011;6131;56.420;15.548;2022-12-18T04:28:14;11.73;;;5.60;;
12135;SDS011;6131;56.420;15.548;2022-12-18T04:30:40;11.13;;;5.60;;
12135;SDS011;6131;56.420;15.548;2022-12-18T04:33:13;12.93;;;5.87;;
12135;SDS011;6131;56.420;15.548;2022-12-18T04:35:42;13.93;;;5.57;;
12135;SDS011;6131;56.420;15.548;2022-12-18T04:38:09;13.80;;;5.83;;
12135;SDS011;6131;56.420;15.548;2022-12-18T04:40:35;11.70;;;5.27;;
12135;SDS011;6131;56.420;15.548;2022-12-18T04:43:01;11.93;;;5.43;;
12135;SDS011;6131;56.420;15.548;2022-12-18T04:45:27;12.40;;;5.20;;
12135;SDS011;6131;56.420;15.548;2022-12-18T04:47:53;13.67;;;5.23;;
12135;SDS011;6131;56.420;15.548;2022-12-18T04:50:19;9.53;;;5.47;;
12135;SDS011;6131;56.420;15.548;2022-12-18T04:52:45;9.10;;;5.00;;
12135;SDS011;6131;56.420;15.548;2022-12-18T04:55:11;10.10;;;4.97;;
12135;SDS011;6131;56.420;15.548;2022-12-18T04:57:37;9.37;;;4.63;;
12135;SDS011;6131;56.420;15.548;2022-12-18T05:00:03;10.77;;;4.93;;
12135;SDS011;6131;56.420;15.548;2022-12-18T05:02:31;12.13;;;5.40;;
12135;SDS011;6131;56.420;15.548;2022-12-18T05:04:57;7.77;;;4.70;;
12135;SDS011;6131;56.420;15.548;2022-12-18T05:07:23;8.10;;;5.00;;
12135;SDS011;6131;56.420;15.548;2022-12-18T05:09:49;10.27;;;4.50;;
12135;SDS011;6131;56.420;15.548;2022-12-18T05:12:15;8.83;;;4.37;;
12135;SDS011;6131;56.420;15.548;2022-12-18T05:14:41;11.23;;;5.17;;
12135;SDS011;6131;56.420;15.548;2022-12-18T05:17:07;11.60;;;4.83;;
12135;SDS011;6131;56.420;15.548;2022-12-18T05:19:33;9.37;;;4.80;;
12135;SDS011;6131;56.420;15.548;2022-12-18T05:21:59;12.03;;;4.93;;
12135;SDS011;6131;56.420;15.548;2022-12-18T05:24:26;9.40;;;4.53;;
12135;SDS011;6131;56.420;15.548;2022-12-18T05:26:52;10.17;;;5.00;;
12135;SDS011;6131;56.420;15.548;2022-12-18T05:29:18;9.70;;;4.77;;
12135;SDS011;6131;56.420;15.548;2022-12-18T05:31:44;11.37;;;5.10;;
12135;SDS011;6131;56.420;15.548;2022-12-18T05:34:10;10.33;;;4.80;;
12135;SDS011;6131;56.420;15.548;2022-12-18T05:36:36;14.47;;;5.03;;
12135;SDS011;6131;56.420;15.548;2022-12-18T05:39:03;12.00;;;5.63;;
12135;SDS011;6131;56.420;15.548;2022-12-18T05:41:29;10.00;;;5.03;;
12135;SDS011;6131;56.420;15.548;2022-12-18T05:43:55;11.87;;;5.03;;
12135;SDS011;6131;56.420;15.548;2022-12-18T05:46:21;8.43;;;3.87;;
12135;SDS011;6131;56.420;15.548;2022-12-18T05:48:47;7.97;;;4.80;;
12135;SDS011;6131;56.420;15.548;2022-12-18T05:51:15;8.60;;;4.73;;
12135;SDS011;6131;56.420;15.548;2022-12-18T05:53:42;11.00;;;4.30;;
12135;SDS011;6131;56.420;15.548;2022-12-18T05:56:09;10.20;;;4.93;;
12135;SDS011;6131;56.420;15.548;2022-12-18T05:58:36;8.77;;;4.70;;
12135;SDS011;6131;56.420;15.548;2022-12-18T06:01:10;9.77;;;4.27;;
12135;SDS011;6131;56.420;15.548;2022-12-18T06:03:36;7.97;;;4.60;;
12135;SDS011;6131;56.420;15.548;2022-12-18T06:06:02;10.63;;;5.00;;
12135;SDS011;6131;56.420;15.548;2022-12-18T06:08:28;8.57;;;4.70;;
12135;SDS011;6131;56.420;15.548;2022-12-18T06:10:54;9.77;;;4.60;;
12135;SDS011;6131;56.420;15.548;2022-12-18T06:13:20;9.57;;;4.77;;
12135;SDS011;6131;56.420;15.548;2022-12-18T06:15:46;11.50;;;4.60;;
12135;SDS011;6131;56.420;15.548;2022-12-18T06:18:12;8.37;;;4.93;;
12135;SDS011;6131;56.420;15.548;2022-12-18T06:20:38;9.47;;;4.63;;
12135;SDS011;6131;56.420;15.548;2022-12-18T06:23:06;8.93;;;4.50;;
12135;SDS011;6131;56.420;15.548;2022-12-18T06:25:32;6.57;;;4.10;;
12135;SDS011;6131;56.420;15.548;2022-12-18T06:27:58;10.60;;;4.37;;
12135;SDS011;6131;56.420;15.548;2022-12-18T06:30:24;9.87;;;4.47;;
12135;SDS011;6131;56.420;15.548;2022-12-18T06:32:50;10.57;;;4.27;;
12135;SDS011;6131;56.420;15.548;2022-12-18T06:35:16;7.00;;;4.60;;
12135;SDS011;6131;56.420;15.548;2022-12-18T06:37:42;8.70;;;4.50;;
12135;SDS011;6131;56.420;15.548;2022-12-18T06:40:08;9.87;;;4.50;;
12135;SDS011;6131;56.420;15.548;2022-12-18T06:42:34;11.20;;;5.03;;
12135;SDS011;6131;56.420;15.548;2022-12-18T06:45:00;9.87;;;4.13;;
12135;SDS011;6131;56.420;15.548;2022-12-18T06:47:26;8.83;;;4.50;;
12135;SDS011;6131;56.420;15.548;2022-12-18T06:49:52;9.73;;;4.80;;
12135;SDS011;6131;56.420;15.548;2022-12-18T06:52:18;6.87;;;4.07;;
12135;SDS011;6131;56.420;15.548;2022-12-18T06:54:44;8.67;;;4.30;;
12135;SDS011;6131;56.420;15.548;2022-12-18T06:57:10;10.03;;;3.60;;
12135;SDS011;6131;56.420;15.548;2022-12-18T06:59:36;9.47;;;4.20;;
12135;SDS011;6131;56.420;15.548;2022-12-18T07:02:02;12.20;;;5.80;;
12135;SDS011;6131;56.420;15.548;2022-12-18T07:04:29;12.13;;;5.13;;
12135;SDS011;6131;56.420;15.548;2022-12-18T07:06:55;8.80;;;4.57;;
12135;SDS011;6131;56.420;15.548;2022-12-18T07:09:21;8.97;;;4.90;;
12135;SDS011;6131;56.420;15.548;2022-12-18T07:11:47;8.97;;;4.90;;
12135;SDS011;6131;56.420;15.548;2022-12-18T07:14:13;8.90;;;4.40;;
12135;SDS011;6131;56.420;15.548;2022-12-18T07:16:39;10.33;;;4.60;;
12135;SDS011;6131;56.420;15.548;2022-12-18T07:19:05;9.23;;;4.47;;
12135;SDS011;6131;56.420;15.548;2022-12-18T07:21:31;8.97;;;4.30;;
12135;SDS011;6131;56.420;15.548;2022-12-18T07:23:57;8.87;;;4.20;;
12135;SDS011;6131;56.420;15.548;2022-12-18T07:26:24;10.43;;;4.70;;
12135;SDS011;6131;56.420;15.548;2022-12-18T07:28:54;10.77;;;4.43;;
12135;SDS011;6131;56.420;15.548;2022-12-18T07:31:20;10.53;;;4.13;;
12135;SDS011;6131;56.420;15.548;2022-12-18T07:33:47;10.23;;;4.67;;
12135;SDS011;6131;56.420;15.548;2022-12-18T07:36:13;7.53;;;4.00;;
12135;SDS011;6131;56.420;15.548;2022-12-18T07:38:39;11.63;;;4.47;;
12135;SDS011;6131;56.420;15.548;2022-12-18T07:41:07;5.73;;;3.90;;
12135;SDS011;6131;56.420;15.548;2022-12-18T07:43:33;11.00;;;4.80;;
12135;SDS011;6131;56.420;15.548;2022-12-18T07:45:59;7.03;;;3.80;;
12135;SDS011;6131;56.420;15.548;2022-12-18T07:48:25;7.63;;;3.73;;
12135;SDS011;6131;56.420;15.548;2022-12-18T07:50:52;8.93;;;4.30;;
12135;SDS011;6131;56.420;15.548;2022-12-18T07:53:18;9.40;;;3.70;;
12135;SDS011;6131;56.420;15.548;2022-12-18T07:55:44;10.80;;;4.00;;
12135;SDS011;6131;56.420;15.548;2022-12-18T07:58:10;11.47;;;4.30;;
12135;SDS011;6131;56.420;15.548;2022-12-18T08:00:36;9.67;;;4.03;;
12135;SDS011;6131;56.420;15.548;2022-12-18T08:03:02;7.83;;;4.10;;
12135;SDS011;6131;56.420;15.548;2022-12-18T08:05:28;6.57;;;3.63;;
12135;SDS011;6131;56.420;15.548;2022-12-18T08:07:54;7.33;;;3.53;;
12135;SDS011;6131;56.420;15.548;2022-12-18T08:10:21;7.57;;;3.87;;
12135;SDS011;6131;56.420;15.548;2022-12-18T08:12:50;8.60;;;3.43;;
12135;SDS011;6131;56.420;15.548;2022-12-18T08:15:17;7.57;;;3.17;;
12135;SDS011;6131;56.420;15.548;2022-12-18T08:17:43;8.27;;;3.50;;
12135;SDS011;6131;56.420;15.548;2022-12-18T08:20:09;8.67;;;3.80;;
12135;SDS011;6131;56.420;15.548;2022-12-18T08:22:38;9.67;;;3.30;;
12135;SDS011;6131;56.420;15.548;2022-12-18T08:25:04;7.10;;;3.40;;
12135;SDS011;6131;56.420;15.548;2022-12-18T08:27:30;8.07;;;3.77;;
12135;SDS011;6131;56.420;15.548;2022-12-18T08:29:56;7.27;;;3.50;;
12135;SDS011;6131;56.420;15.548;2022-12-18T08:32:23;6.83;;;3.67;;
12135;SDS011;6131;56.420;15.548;2022-12-18T08:34:49;9.93;;;4.40;;
12135;SDS011;6131;56.420;15.548;2022-12-18T08:37:15;7.17;;;3.30;;
12135;SDS011;6131;56.420;15.548;2022-12-18T08:39:41;10.83;;;3.60;;
12135;SDS011;6131;56.420;15.548;2022-12-18T08:42:07;7.50;;;3.47;;
12135;SDS011;6131;56.420;15.548;2022-12-18T08:44:51;8.40;;;3.10;;
12135;SDS011;6131;56.420;15.548;2022-12-18T08:47:17;8.50;;;3.53;;
12135;SDS011;6131;56.420;15.548;2022-12-18T08:49:43;8.97;;;3.90;;
12135;SDS011;6131;56.420;15.548;2022-12-18T08:52:09;7.80;;;3.57;;
12135;SDS011;6131;56.420;15.548;2022-12-18T08:54:36;7.77;;;3.30;;
12135;SDS011;6131;56.420;15.548;2022-12-18T08:57:02;7.77;;;3.73;;
12135;SDS011;6131;56.420;15.548;2022-12-18T08:59:28;6.13;;;3.63;;
12135;SDS011;6131;56.420;15.548;2022-12-18T09:01:54;10.97;;;3.80;;
12135;SDS011;6131;56.420;15.548;2022-12-18T09:04:20;7.87;;;3.67;;
12135;SDS011;6131;56.420;15.548;2022-12-18T09:06:46;7.90;;;3.60;;
12135;SDS011;6131;56.420;15.548;2022-12-18T09:09:12;7.50;;;3.97;;
12135;SDS011;6131;56.420;15.548;2022-12-18T09:11:38;8.60;;;3.23;;
12135;SDS011;6131;56.420;15.548;2022-12-18T09:14:04;10.00;;;3.47;;
12135;SDS011;6131;56.420;15.548;2022-12-18T09:16:30;10.57;;;3.93;;
12135;SDS011;6131;56.420;15.548;2022-12-18T09:18:56;7.57;;;3.40;;
12135;SDS011;6131;56.420;15.548;2022-12-18T09:21:26;9.50;;;3.60;;
12135;SDS011;6131;56.420;15.548;2022-12-18T09:23:53;7.93;;;3.50;;
12135;SDS011;6131;56.420;15.548;2022-12-18T09:26:19;10.27;;;3.97;;
12135;SDS011;6131;56.420;15.548;2022-12-18T09:28:46;7.70;;;3.93;;
12135;SDS011;6131;56.420;15.548;2022-12-18T09:31:15;6.97;;;3.77;;
12135;SDS011;6131;56.420;15.548;2022-12-18T09:33:41;8.37;;;3.60;;
12135;SDS011;6131;56.420;15.548;2022-12-18T09:36:08;10.10;;;4.57;;
12135;SDS011;6131;56.420;15.548;2022-12-18T09:38:35;9.70;;;4.37;;
12135;SDS011;6131;56.420;15.548;2022-12-18T09:41:05;10.07;;;4.63;;
12135;SDS011;6131;56.420;15.548;2022-12-18T09:43:41;10.30;;;4.63;;
12135;SDS011;6131;56.420;15.548;2022-12-18T09:46:10;6.87;;;3.70;;
12135;SDS011;6131;56.420;15.548;2022-12-18T09:48:41;11.30;;;4.07;;
12135;SDS011;6131;56.420;15.548;2022-12-18T09:51:12;8.27;;;4.13;;
12135;SDS011;6131;56.420;15.548;2022-12-18T09:53:41;7.97;;;3.47;;
12135;SDS011;6131;56.420;15.548;2022-12-18T09:56:11;7.70;;;4.17;;
12135;SDS011;6131;56.420;15.548;2022-12-18T09:58:41;7.93;;;4.27;;
12135;SDS011;6131;56.420;15.548;2022-12-18T10:01:14;9.00;;;3.67;;
12135;SDS011;6131;56.420;15.548;2022-12-18T10:03:41;10.37;;;4.53;;
12135;SDS011;6131;56.420;15.548;2022-12-18T10:06:12;9.97;;;4.37;;
12135;SDS011;6131;56.420;15.548;2022-12-18T10:08:41;7.27;;;3.93;;
12135;SDS011;6131;56.420;15.548;2022-12-18T10:13:58;9.70;;;4.80;;
12135;SDS011;6131;56.420;15.548;2022-12-18T10:16:36;10.90;;;4.67;;
12135;SDS011;6131;56.420;15.548;2022-12-18T10:24:14;9.00;;;4.57;;
12135;SDS011;6131;56.420;15.548;2022-12-18T10:26:44;8.40;;;4.50;;
12135;SDS011;6131;56.420;15.548;2022-12-18T10:29:11;9.37;;;4.87;;
12135;SDS011;6131;56.420;15.548;2022-12-18T10:31:37;8.37;;;4.73;;
12135;SDS011;6131;56.420;15.548;2022-12-18T10:34:03;9.40;;;4.70;;
12135;SDS011;6131;56.420;15.548;2022-12-18T10:36:29;11.50;;;4.70;;
12135;SDS011;6131;56.420;15.548;2022-12-18T10:39:10;9.90;;;5.47;;
12135;SDS011;6131;56.420;15.548;2022-12-18T10:41:39;12.70;;;5.23;;
12135;SDS011;6131;56.420;15.548;2022-12-18T10:44:15;10.30;;;4.90;;
12135;SDS011;6131;56.420;15.548;2022-12-18T10:46:42;12.50;;;5.00;;
12135;SDS011;6131;56.420;15.548;2022-12-18T10:49:18;12.43;;;5.20;;
12135;SDS011;6131;56.420;15.548;2022-12-18T10:51:44;11.43;;;4.87;;
12135;SDS011;6131;56.420;15.548;2022-12-18T10:54:45;11.20;;;4.87;;
12135;SDS011;6131;56.420;15.548;2022-12-18T10:57:16;10.23;;;4.90;;
12135;SDS011;6131;56.420;15.548;2022-12-18T10:59:55;8.73;;;4.87;;
12135;SDS011;6131;56.420;15.548;2022-12-18T11:02:43;10.00;;;4.83;;
12135;SDS011;6131;56.420;15.548;2022-12-18T11:07:49;9.77;;;4.80;;
12135;SDS011;6131;56.420;15.548;2022-12-18T11:10:17;9.37;;;4.47;;
12135;SDS011;6131;56.420;15.548;2022-12-18T11:12:43;10.83;;;5.07;;
12135;SDS011;6131;56.420;15.548;2022-12-18T11:15:14;9.20;;;4.60;;
12135;SDS011;6131;56.420;15.548;2022-12-18T11:17:41;7.03;;;4.20;;
12135;SDS011;6131;56.420;15.548;2022-12-18T11:20:19;8.07;;;4.17;;
12135;SDS011;6131;56.420;15.548;2022-12-18T11:22:56;8.37;;;3.90;;
12135;SDS011;6131;56.420;15.548;2022-12-18T11:25:22;8.80;;;4.47;;
12135;SDS011;6131;56.420;15.548;2022-12-18T11:27:53;11.33;;;4.43;;
12135;SDS011;6131;56.420;15.548;2022-12-18T11:30:21;8.93;;;4.30;;
12135;SDS011;6131;56.420;15.548;2022-12-18T11:32:48;6.70;;;3.30;;
12135;SDS011;6131;56.420;15.548;2022-12-18T11:37:46;7.27;;;3.83;;
12135;SDS011;6131;56.420;15.548;2022-12-18T11:40:14;9.40;;;3.97;;
12135;SDS011;6131;56.420;15.548;2022-12-18T11:47:39;8.07;;;3.60;;
12135;SDS011;6131;56.420;15.548;2022-12-18T11:50:13;10.30;;;3.77;;
12135;SDS011;6131;56.420;15.548;2022-12-18T11:52:40;6.67;;;3.40;;
12135;SDS011;6131;56.420;15.548;2022-12-18T11:55:49;8.67;;;3.47;;
12135;SDS011;6131;56.420;15.548;2022-12-18T12:00:43;9.83;;;3.73;;
12135;SDS011;6131;56.420;15.548;2022-12-18T12:03:20;11.07;;;4.40;;
12135;SDS011;6131;56.420;15.548;2022-12-18T12:05:51;8.40;;;3.77;;
12135;SDS011;6131;56.420;15.548;2022-12-18T12:08:38;7.33;;;3.63;;
12135;SDS011;6131;56.420;15.548;2022-12-18T12:16:18;6.70;;;3.43;;
12135;SDS011;6131;56.420;15.548;2022-12-18T12:19:10;6.73;;;3.27;;
12135;SDS011;6131;56.420;15.548;2022-12-18T12:24:38;7.63;;;3.20;;
12135;SDS011;6131;56.420;15.548;2022-12-18T12:27:15;5.73;;;3.03;;
12135;SDS011;6131;56.420;15.548;2022-12-18T12:34:46;7.37;;;3.50;;
12135;SDS011;6131;56.420;15.548;2022-12-18T12:39:40;6.03;;;3.43;;
12135;SDS011;6131;56.420;15.548;2022-12-18T12:42:11;6.97;;;3.63;;
12135;SDS011;6131;56.420;15.548;2022-12-18T12:44:57;5.57;;;3.07;;
12135;SDS011;6131;56.420;15.548;2022-12-18T12:47:31;5.53;;;2.83;;
12135;SDS011;6131;56.420;15.548;2022-12-18T12:49:59;6.50;;;3.30;;
12135;SDS011;6131;56.420;15.548;2022-12-18T12:52:31;6.30;;;3.07;;
12135;SDS011;6131;56.420;15.548;2022-12-18T12:54:58;7.17;;;3.60;;
12135;SDS011;6131;56.420;15.548;2022-12-18T12:57:37;4.97;;;3.23;;
12135;SDS011;6131;56.420;15.548;2022-12-18T13:00:11;7.47;;;3.27;;
12135;SDS011;6131;56.420;15.548;2022-12-18T13:20:34;5.80;;;2.80;;
12135;SDS011;6131;56.420;15.548;2022-12-18T13:23:01;5.97;;;2.87;;
12135;SDS011;6131;56.420;15.548;2022-12-18T13:25:37;5.43;;;2.83;;
12135;SDS011;6131;56.420;15.548;2022-12-18T13:28:07;5.00;;;3.03;;
12135;SDS011;6131;56.420;15.548;2022-12-18T13:38:23;6.40;;;3.00;;
12135;SDS011;6131;56.420;15.548;2022-12-18T13:43:20;5.30;;;3.23;;
12135;SDS011;6131;56.420;15.548;2022-12-18T13:46:02;6.13;;;3.30;;
12135;SDS011;6131;56.420;15.548;2022-12-18T13:48:29;5.30;;;2.50;;
12135;SDS011;6131;56.420;15.548;2022-12-18T13:51:06;5.17;;;2.63;;
12135;SDS011;6131;56.420;15.548;2022-12-18T13:53:34;5.57;;;2.90;;
12135;SDS011;6131;56.420;15.548;2022-12-18T13:56:03;5.70;;;2.70;;
12135;SDS011;6131;56.420;15.548;2022-12-18T13:58:29;8.57;;;2.57;;
12135;SDS011;6131;56.420;15.548;2022-12-18T14:00:55;7.03;;;2.90;;
12135;SDS011;6131;56.420;15.548;2022-12-18T14:03:24;4.00;;;2.63;;
12135;SDS011;6131;56.420;15.548;2022-12-18T14:06:01;6.30;;;3.17;;
12135;SDS011;6131;56.420;15.548;2022-12-18T14:08:32;6.67;;;3.07;;
12135;SDS011;6131;56.420;15.548;2022-12-18T14:10:58;6.03;;;2.90;;
12135;SDS011;6131;56.420;15.548;2022-12-18T14:13:32;4.37;;;2.30;;
12135;SDS011;6131;56.420;15.548;2022-12-18T14:16:01;9.07;;;2.70;;
12135;SDS011;6131;56.420;15.548;2022-12-18T14:21:28;4.80;;;2.53;;
12135;SDS011;6131;56.420;15.548;2022-12-18T14:26:30;5.47;;;2.87;;
12135;SDS011;6131;56.420;15.548;2022-12-18T14:28:59;4.53;;;2.80;;
12135;SDS011;6131;56.420;15.548;2022-12-18T14:31:27;6.37;;;2.87;;
12135;SDS011;6131;56.420;15.548;2022-12-18T14:33:53;7.40;;;2.50;;
12135;SDS011;6131;56.420;15.548;2022-12-18T14:36:21;4.10;;;2.47;;
12135;SDS011;6131;56.420;15.548;2022-12-18T14:38:51;4.80;;;2.23;;
12135;SDS011;6131;56.420;15.548;2022-12-18T14:41:18;4.37;;;2.40;;
12135;SDS011;6131;56.420;15.548;2022-12-18T14:43:46;8.50;;;2.77;;
12135;SDS011;6131;56.420;15.548;2022-12-18T14:46:46;4.77;;;2.63;;
12135;SDS011;6131;56.420;15.548;2022-12-18T14:49:17;7.07;;;2.60;;
12135;SDS011;6131;56.420;15.548;2022-12-18T14:51:48;6.07;;;3.03;;
12135;SDS011;6131;56.420;15.548;2022-12-18T14:54:15;6.30;;;3.23;;
12135;SDS011;6131;56.420;15.548;2022-12-18T14:56:46;6.33;;;2.90;;
12135;SDS011;6131;56.420;15.548;2022-12-18T14:59:13;11.63;;;3.33;;
12135;SDS011;6131;56.420;15.548;2022-12-18T15:01:45;7.10;;;2.90;;
12135;SDS011;6131;56.420;15.548;2022-12-18T15:04:35;6.97;;;2.90;;
12135;SDS011;6131;56.420;15.548;2022-12-18T15:09:38;6.33;;;2.83;;
12135;SDS011;6131;56.420;15.548;2022-12-18T15:12:04;6.47;;;3.10;;
12135;SDS011;6131;56.420;15.548;2022-12-18T15:16:57;8.10;;;3.43;;
12135;SDS011;6131;56.420;15.548;2022-12-18T15:19:27;9.23;;;3.23;;
12135;SDS011;6131;56.420;15.548;2022-12-18T15:21:56;4.60;;;2.43;;
12135;SDS011;6131;56.420;15.548;2022-12-18T15:24:24;7.63;;;3.40;;
12135;SDS011;6131;56.420;15.548;2022-12-18T15:26:52;6.07;;;3.10;;
12135;SDS011;6131;56.420;15.548;2022-12-18T15:29:19;6.60;;;2.93;;
12135;SDS011;6131;56.420;15.548;2022-12-18T15:32:10;8.60;;;3.33;;
12135;SDS011;6131;56.420;15.548;2022-12-18T15:34:41;7.07;;;2.90;;
12135;SDS011;6131;56.420;15.548;2022-12-18T15:37:07;7.13;;;3.20;;
12135;SDS011;6131;56.420;15.548;2022-12-18T15:39:33;7.67;;;3.43;;
12135;SDS011;6131;56.420;15.548;2022-12-18T15:42:00;9.33;;;2.97;;
12135;SDS011;6131;56.420;15.548;2022-12-18T15:44:45;7.73;;;3.23;;
12135;SDS011;6131;56.420;15.548;2022-12-18T15:47:12;7.67;;;3.13;;
12135;SDS011;6131;56.420;15.548;2022-12-18T15:49:38;6.43;;;3.23;;
12135;SDS011;6131;56.420;15.548;2022-12-18T15:52:04;5.23;;;2.60;;
12135;SDS011;6131;56.420;15.548;2022-12-18T15:54:31;10.23;;;3.17;;
12135;SDS011;6131;56.420;15.548;2022-12-18T15:57:15;6.57;;;3.10;;
12135;SDS011;6131;56.420;15.548;2022-12-18T15:59:47;7.13;;;3.27;;
12135;SDS011;6131;56.420;15.548;2022-12-18T16:02:15;7.43;;;3.03;;
12135;SDS011;6131;56.420;15.548;2022-12-18T16:04:42;7.10;;;3.37;;
12135;SDS011;6131;56.420;15.548;2022-12-18T16:07:08;6.10;;;3.20;;
12135;SDS011;6131;56.420;15.548;2022-12-18T16:09:35;6.90;;;3.83;;
12135;SDS011;6131;56.420;15.548;2022-12-18T16:12:01;5.63;;;2.97;;
12135;SDS011;6131;56.420;15.548;2022-12-18T16:14:28;6.13;;;3.43;;
12135;SDS011;6131;56.420;15.548;2022-12-18T16:16:56;6.13;;;3.27;;
12135;SDS011;6131;56.420;15.548;2022-12-18T16:19:22;9.63;;;3.80;;
12135;SDS011;6131;56.420;15.548;2022-12-18T16:21:49;4.77;;;2.97;;
12135;SDS011;6131;56.420;15.548;2022-12-18T16:24:16;6.07;;;3.50;;
12135;SDS011;6131;56.420;15.548;2022-12-18T16:26:43;8.60;;;3.80;;
12135;SDS011;6131;56.420;15.548;2022-12-18T16:29:09;6.20;;;3.10;;
12135;SDS011;6131;56.420;15.548;2022-12-18T16:31:35;5.53;;;3.27;;
12135;SDS011;6131;56.420;15.548;2022-12-18T16:36:37;6.33;;;3.43;;
12135;SDS011;6131;56.420;15.548;2022-12-18T16:39:03;8.13;;;3.93;;